sensor_id;sensor_type;location;lat;lon;timestamp;P1;durP1;ratioP1;P2;durP2;ratioP2
72286;SDS011;60221;45.696;16.076;2024-01-06T00:00:30;28.40;;;13.40;;
72286;SDS011;60221;45.696;16.076;2024-01-06T00:02:57;27.40;;;13.50;;
72286;SDS011;60221;45.696;16.076;2024-01-06T00:05:24;27.80;;;13.40;;
72286;SDS011;60221;45.696;16.076;2024-01-06T00:07:51;27.50;;;13.70;;
72286;SDS011;60221;45.696;16.076;2024-01-06T00:10:18;27.00;;;12.90;;
72286;SDS011;60221;45.696;16.076;2024-01-06T00:12:45;27.30;;;12.90;;
72286;SDS011;60221;45.696;16.076;2024-01-06T00:15:12;27.90;;;13.10;;
72286;SDS011;60221;45.696;16.076;2024-01-06T00:17:39;28.20;;;13.30;;
72286;SDS011;60221;45.696;16.076;2024-01-06T00:20:06;28.30;;;12.40;;
72286;SDS011;60221;45.696;16.076;2024-01-06T00:22:33;30.00;;;13.00;;
72286;SDS011;60221;45.696;16.076;2024-01-06T00:25:00;25.70;;;12.20;;
72286;SDS011;60221;45.696;16.076;2024-01-06T00:27:27;25.40;;;12.20;;
72286;SDS011;60221;45.696;16.076;2024-01-06T00:29:54;24.00;;;11.50;;
72286;SDS011;60221;45.696;16.076;2024-01-06T00:32:21;24.70;;;11.50;;
72286;SDS011;60221;45.696;16.076;2024-01-06T00:34:48;28.40;;;12.60;;
72286;SDS011;60221;45.696;16.076;2024-01-06T00:37:14;25.00;;;11.90;;
72286;SDS011;60221;45.696;16.076;2024-01-06T00:39:41;25.60;;;12.30;;
72286;SDS011;60221;45.696;16.076;2024-01-06T00:42:08;24.90;;;11.30;;
72286;SDS011;60221;45.696;16.076;2024-01-06T00:44:35;23.90;;;12.00;;
72286;SDS011;60221;45.696;16.076;2024-01-06T00:47:02;26.30;;;12.50;;
72286;SDS011;60221;45.696;16.076;2024-01-06T00:49:29;30.50;;;13.90;;
72286;SDS011;60221;45.696;16.076;2024-01-06T00:51:57;24.40;;;12.50;;
72286;SDS011;60221;45.696;16.076;2024-01-06T00:54:23;29.40;;;13.20;;
72286;SDS011;60221;45.696;16.076;2024-01-06T00:56:50;26.90;;;13.70;;
72286;SDS011;60221;45.696;16.076;2024-01-06T00:59:20;26.80;;;13.80;;
72286;SDS011;60221;45.696;16.076;2024-01-06T01:01:46;27.50;;;12.50;;
72286;SDS011;60221;45.696;16.076;2024-01-06T01:04:13;27.80;;;12.10;;
72286;SDS011;60221;45.696;16.076;2024-01-06T01:06:40;27.30;;;12.50;;
72286;SDS011;60221;45.696;16.076;2024-01-06T01:09:07;25.60;;;13.00;;
72286;SDS011;60221;45.696;16.076;2024-01-06T01:11:35;25.70;;;12.80;;
72286;SDS011;60221;45.696;16.076;2024-01-06T01:14:02;25.30;;;13.00;;
72286;SDS011;60221;45.696;16.076;2024-01-06T01:16:29;25.70;;;13.30;;
72286;SDS011;60221;45.696;16.076;2024-01-06T01:18:56;26.10;;;13.00;;
72286;SDS011;60221;45.696;16.076;2024-01-06T01:21:23;23.50;;;11.30;;
72286;SDS011;60221;45.696;16.076;2024-01-06T01:23:50;27.90;;;12.60;;
72286;SDS011;60221;45.696;16.076;2024-01-06T01:26:17;26.90;;;13.00;;
72286;SDS011;60221;45.696;16.076;2024-01-06T01:28:44;25.10;;;13.30;;
72286;SDS011;60221;45.696;16.076;2024-01-06T01:31:11;28.40;;;12.60;;
72286;SDS011;60221;45.696;16.076;2024-01-06T01:33:39;27.30;;;12.20;;
72286;SDS011;60221;45.696;16.076;2024-01-06T01:36:06;27.40;;;11.90;;
72286;SDS011;60221;45.696;16.076;2024-01-06T01:38:33;24.80;;;12.30;;
72286;SDS011;60221;45.696;16.076;2024-01-06T01:41:00;23.60;;;11.30;;
72286;SDS011;60221;45.696;16.076;2024-01-06T01:43:27;24.10;;;11.60;;
72286;SDS011;60221;45.696;16.076;2024-01-06T01:45:55;26.10;;;12.30;;
72286;SDS011;60221;45.696;16.076;2024-01-06T01:48:23;26.50;;;12.20;;
72286;SDS011;60221;45.696;16.076;2024-01-06T01:50:51;26.00;;;12.30;;
72286;SDS011;60221;45.696;16.076;2024-01-06T01:53:19;27.10;;;12.70;;
72286;SDS011;60221;45.696;16.076;2024-01-06T01:55:46;24.00;;;11.90;;
72286;SDS011;60221;45.696;16.076;2024-01-06T01:58:13;26.50;;;11.60;;
72286;SDS011;60221;45.696;16.076;2024-01-06T02:00:40;25.70;;;12.50;;
72286;SDS011;60221;45.696;16.076;2024-01-06T02:03:07;25.90;;;12.10;;
72286;SDS011;60221;45.696;16.076;2024-01-06T02:05:35;25.60;;;12.30;;
72286;SDS011;60221;45.696;16.076;2024-01-06T02:08:01;26.40;;;12.40;;
72286;SDS011;60221;45.696;16.076;2024-01-06T02:10:28;23.60;;;11.80;;
72286;SDS011;60221;45.696;16.076;2024-01-06T02:12:55;21.60;;;10.60;;
72286;SDS011;60221;45.696;16.076;2024-01-06T02:15:22;24.70;;;11.60;;
72286;SDS011;60221;45.696;16.076;2024-01-06T02:17:49;29.00;;;12.80;;
72286;SDS011;60221;45.696;16.076;2024-01-06T02:20:16;24.60;;;11.50;;
72286;SDS011;60221;45.696;16.076;2024-01-06T02:22:46;27.40;;;12.20;;
72286;SDS011;60221;45.696;16.076;2024-01-06T02:25:13;23.30;;;12.00;;
72286;SDS011;60221;45.696;16.076;2024-01-06T02:27:40;27.50;;;12.90;;
72286;SDS011;60221;45.696;16.076;2024-01-06T02:30:07;26.00;;;13.00;;
72286;SDS011;60221;45.696;16.076;2024-01-06T02:32:34;26.10;;;12.50;;
72286;SDS011;60221;45.696;16.076;2024-01-06T02:35:01;26.00;;;12.90;;
72286;SDS011;60221;45.696;16.076;2024-01-06T02:37:28;28.40;;;12.60;;
72286;SDS011;60221;45.696;16.076;2024-01-06T02:39:54;26.00;;;12.70;;
72286;SDS011;60221;45.696;16.076;2024-01-06T02:42:21;27.30;;;13.40;;
72286;SDS011;60221;45.696;16.076;2024-01-06T02:44:48;25.90;;;12.60;;
72286;SDS011;60221;45.696;16.076;2024-01-06T02:47:15;27.30;;;13.20;;
72286;SDS011;60221;45.696;16.076;2024-01-06T02:49:42;29.70;;;13.70;;
72286;SDS011;60221;45.696;16.076;2024-01-06T02:52:09;30.30;;;13.70;;
72286;SDS011;60221;45.696;16.076;2024-01-06T02:54:35;25.20;;;12.00;;
72286;SDS011;60221;45.696;16.076;2024-01-06T02:57:02;24.70;;;12.20;;
72286;SDS011;60221;45.696;16.076;2024-01-06T02:59:29;26.40;;;12.50;;
72286;SDS011;60221;45.696;16.076;2024-01-06T03:01:57;25.30;;;13.30;;
72286;SDS011;60221;45.696;16.076;2024-01-06T03:04:23;24.40;;;12.20;;
72286;SDS011;60221;45.696;16.076;2024-01-06T03:06:50;24.80;;;12.40;;
72286;SDS011;60221;45.696;16.076;2024-01-06T03:09:20;26.40;;;12.60;;
72286;SDS011;60221;45.696;16.076;2024-01-06T03:11:47;23.30;;;11.60;;
72286;SDS011;60221;45.696;16.076;2024-01-06T03:14:13;23.20;;;11.60;;
72286;SDS011;60221;45.696;16.076;2024-01-06T03:16:40;24.30;;;10.80;;
72286;SDS011;60221;45.696;16.076;2024-01-06T03:19:07;24.10;;;11.10;;
72286;SDS011;60221;45.696;16.076;2024-01-06T03:21:34;23.10;;;11.30;;
72286;SDS011;60221;45.696;16.076;2024-01-06T03:24:01;22.80;;;10.60;;
72286;SDS011;60221;45.696;16.076;2024-01-06T03:26:28;21.90;;;10.50;;
72286;SDS011;60221;45.696;16.076;2024-01-06T03:28:55;22.00;;;10.00;;
72286;SDS011;60221;45.696;16.076;2024-01-06T03:31:21;21.30;;;10.10;;
72286;SDS011;60221;45.696;16.076;2024-01-06T03:33:49;22.40;;;9.80;;
72286;SDS011;60221;45.696;16.076;2024-01-06T03:36:16;20.20;;;9.70;;
72286;SDS011;60221;45.696;16.076;2024-01-06T03:38:43;21.70;;;10.60;;
72286;SDS011;60221;45.696;16.076;2024-01-06T03:41:10;19.40;;;9.90;;
72286;SDS011;60221;45.696;16.076;2024-01-06T03:43:37;18.30;;;9.10;;
72286;SDS011;60221;45.696;16.076;2024-01-06T03:46:04;20.90;;;9.90;;
72286;SDS011;60221;45.696;16.076;2024-01-06T03:48:31;19.70;;;9.70;;
72286;SDS011;60221;45.696;16.076;2024-01-06T03:51:02;22.00;;;11.20;;
72286;SDS011;60221;45.696;16.076;2024-01-06T03:53:29;21.10;;;10.40;;
72286;SDS011;60221;45.696;16.076;2024-01-06T03:55:56;22.50;;;11.00;;
72286;SDS011;60221;45.696;16.076;2024-01-06T03:58:23;19.70;;;9.50;;
72286;SDS011;60221;45.696;16.076;2024-01-06T04:00:50;19.60;;;9.70;;
72286;SDS011;60221;45.696;16.076;2024-01-06T04:03:17;22.30;;;10.20;;
72286;SDS011;60221;45.696;16.076;2024-01-06T04:05:43;23.90;;;11.20;;
72286;SDS011;60221;45.696;16.076;2024-01-06T04:08:10;24.10;;;11.40;;
72286;SDS011;60221;45.696;16.076;2024-01-06T04:10:37;23.70;;;10.90;;
72286;SDS011;60221;45.696;16.076;2024-01-06T04:13:04;22.10;;;11.10;;
72286;SDS011;60221;45.696;16.076;2024-01-06T04:15:31;22.00;;;10.10;;
72286;SDS011;60221;45.696;16.076;2024-01-06T04:18:00;20.90;;;10.40;;
72286;SDS011;60221;45.696;16.076;2024-01-06T04:20:28;24.00;;;10.70;;
72286;SDS011;60221;45.696;16.076;2024-01-06T04:22:54;21.10;;;10.50;;
72286;SDS011;60221;45.696;16.076;2024-01-06T04:25:21;20.40;;;10.70;;
72286;SDS011;60221;45.696;16.076;2024-01-06T04:27:48;23.30;;;11.40;;
72286;SDS011;60221;45.696;16.076;2024-01-06T04:30:17;21.20;;;11.20;;
72286;SDS011;60221;45.696;16.076;2024-01-06T04:32:44;28.00;;;12.40;;
72286;SDS011;60221;45.696;16.076;2024-01-06T04:35:11;23.20;;;11.50;;
72286;SDS011;60221;45.696;16.076;2024-01-06T04:37:38;23.30;;;11.70;;
72286;SDS011;60221;45.696;16.076;2024-01-06T04:40:05;24.20;;;12.40;;
72286;SDS011;60221;45.696;16.076;2024-01-06T04:42:32;26.60;;;12.10;;
72286;SDS011;60221;45.696;16.076;2024-01-06T04:44:59;21.70;;;11.50;;
72286;SDS011;60221;45.696;16.076;2024-01-06T04:47:25;23.30;;;11.50;;
72286;SDS011;60221;45.696;16.076;2024-01-06T04:49:54;21.30;;;11.10;;
72286;SDS011;60221;45.696;16.076;2024-01-06T04:52:21;23.90;;;11.50;;
72286;SDS011;60221;45.696;16.076;2024-01-06T04:54:48;23.40;;;11.00;;
72286;SDS011;60221;45.696;16.076;2024-01-06T04:57:15;21.20;;;11.70;;
72286;SDS011;60221;45.696;16.076;2024-01-06T04:59:42;23.50;;;11.40;;
72286;SDS011;60221;45.696;16.076;2024-01-06T05:02:09;22.50;;;11.50;;
72286;SDS011;60221;45.696;16.076;2024-01-06T05:04:36;22.10;;;10.50;;
72286;SDS011;60221;45.696;16.076;2024-01-06T05:07:03;23.00;;;10.80;;
72286;SDS011;60221;45.696;16.076;2024-01-06T05:09:30;20.70;;;10.90;;
72286;SDS011;60221;45.696;16.076;2024-01-06T05:11:56;23.30;;;10.90;;
72286;SDS011;60221;45.696;16.076;2024-01-06T05:14:23;22.20;;;11.20;;
72286;SDS011;60221;45.696;16.076;2024-01-06T05:16:50;23.30;;;11.50;;
72286;SDS011;60221;45.696;16.076;2024-01-06T05:19:17;21.30;;;10.80;;
72286;SDS011;60221;45.696;16.076;2024-01-06T05:21:47;22.40;;;10.80;;
72286;SDS011;60221;45.696;16.076;2024-01-06T05:24:14;22.20;;;11.10;;
72286;SDS011;60221;45.696;16.076;2024-01-06T05:26:41;24.10;;;12.20;;
72286;SDS011;60221;45.696;16.076;2024-01-06T05:29:08;23.80;;;11.10;;
72286;SDS011;60221;45.696;16.076;2024-01-06T05:31:35;23.40;;;10.80;;
72286;SDS011;60221;45.696;16.076;2024-01-06T05:34:01;21.90;;;10.30;;
72286;SDS011;60221;45.696;16.076;2024-01-06T05:36:28;21.90;;;11.00;;
72286;SDS011;60221;45.696;16.076;2024-01-06T05:38:55;22.70;;;10.90;;
72286;SDS011;60221;45.696;16.076;2024-01-06T05:41:22;24.00;;;10.90;;
72286;SDS011;60221;45.696;16.076;2024-01-06T05:43:49;20.90;;;10.00;;
72286;SDS011;60221;45.696;16.076;2024-01-06T05:46:22;22.50;;;10.30;;
72286;SDS011;60221;45.696;16.076;2024-01-06T05:48:49;22.70;;;10.50;;
72286;SDS011;60221;45.696;16.076;2024-01-06T05:51:16;18.40;;;10.50;;
72286;SDS011;60221;45.696;16.076;2024-01-06T05:53:43;23.00;;;10.60;;
72286;SDS011;60221;45.696;16.076;2024-01-06T05:56:10;21.10;;;11.00;;
72286;SDS011;60221;45.696;16.076;2024-01-06T05:58:37;23.30;;;11.40;;
72286;SDS011;60221;45.696;16.076;2024-01-06T06:01:04;25.30;;;11.30;;
72286;SDS011;60221;45.696;16.076;2024-01-06T06:03:31;22.10;;;10.80;;
72286;SDS011;60221;45.696;16.076;2024-01-06T06:05:58;20.90;;;10.80;;
72286;SDS011;60221;45.696;16.076;2024-01-06T06:08:24;22.50;;;10.80;;
72286;SDS011;60221;45.696;16.076;2024-01-06T06:10:51;22.00;;;10.10;;
72286;SDS011;60221;45.696;16.076;2024-01-06T06:13:28;23.70;;;10.90;;
72286;SDS011;60221;45.696;16.076;2024-01-06T06:15:55;20.80;;;10.80;;
72286;SDS011;60221;45.696;16.076;2024-01-06T06:18:22;20.20;;;9.80;;
72286;SDS011;60221;45.696;16.076;2024-01-06T06:20:49;23.00;;;11.20;;
72286;SDS011;60221;45.696;16.076;2024-01-06T06:23:15;25.10;;;10.80;;
72286;SDS011;60221;45.696;16.076;2024-01-06T06:25:42;21.50;;;10.40;;
72286;SDS011;60221;45.696;16.076;2024-01-06T06:28:09;19.60;;;9.40;;
72286;SDS011;60221;45.696;16.076;2024-01-06T06:30:36;19.90;;;9.80;;
72286;SDS011;60221;45.696;16.076;2024-01-06T06:33:03;18.90;;;10.10;;
72286;SDS011;60221;45.696;16.076;2024-01-06T06:35:30;21.50;;;9.50;;
72286;SDS011;60221;45.696;16.076;2024-01-06T06:37:56;22.10;;;10.30;;
72286;SDS011;60221;45.696;16.076;2024-01-06T06:40:23;20.70;;;10.50;;
72286;SDS011;60221;45.696;16.076;2024-01-06T06:42:50;19.70;;;10.60;;
72286;SDS011;60221;45.696;16.076;2024-01-06T06:45:17;25.20;;;11.80;;
72286;SDS011;60221;45.696;16.076;2024-01-06T06:47:47;21.80;;;10.80;;
72286;SDS011;60221;45.696;16.076;2024-01-06T06:50:14;23.70;;;11.00;;
72286;SDS011;60221;45.696;16.076;2024-01-06T06:52:40;20.60;;;10.90;;
72286;SDS011;60221;45.696;16.076;2024-01-06T06:55:08;22.20;;;10.80;;
72286;SDS011;60221;45.696;16.076;2024-01-06T06:57:35;21.20;;;11.30;;
72286;SDS011;60221;45.696;16.076;2024-01-06T07:00:02;20.40;;;10.50;;
72286;SDS011;60221;45.696;16.076;2024-01-06T07:02:29;23.70;;;10.50;;
72286;SDS011;60221;45.696;16.076;2024-01-06T07:04:56;25.70;;;10.10;;
72286;SDS011;60221;45.696;16.076;2024-01-06T07:07:23;22.50;;;11.10;;
72286;SDS011;60221;45.696;16.076;2024-01-06T07:09:50;21.10;;;10.10;;
72286;SDS011;60221;45.696;16.076;2024-01-06T07:12:17;22.90;;;10.20;;
72286;SDS011;60221;45.696;16.076;2024-01-06T07:14:44;21.60;;;10.00;;
72286;SDS011;60221;45.696;16.076;2024-01-06T07:17:10;20.40;;;10.60;;
72286;SDS011;60221;45.696;16.076;2024-01-06T07:19:37;20.60;;;10.20;;
72286;SDS011;60221;45.696;16.076;2024-01-06T07:22:04;19.20;;;10.40;;
72286;SDS011;60221;45.696;16.076;2024-01-06T07:24:33;20.40;;;10.00;;
72286;SDS011;60221;45.696;16.076;2024-01-06T07:26:59;24.60;;;10.20;;
72286;SDS011;60221;45.696;16.076;2024-01-06T07:29:26;22.70;;;10.70;;
72286;SDS011;60221;45.696;16.076;2024-01-06T07:31:53;20.90;;;11.00;;
72286;SDS011;60221;45.696;16.076;2024-01-06T07:34:20;19.60;;;9.30;;
72286;SDS011;60221;45.696;16.076;2024-01-06T07:36:47;18.60;;;9.40;;
72286;SDS011;60221;45.696;16.076;2024-01-06T07:39:14;20.10;;;10.40;;
72286;SDS011;60221;45.696;16.076;2024-01-06T07:41:45;23.10;;;10.10;;
72286;SDS011;60221;45.696;16.076;2024-01-06T07:44:21;20.20;;;9.60;;
72286;SDS011;60221;45.696;16.076;2024-01-06T07:46:52;19.60;;;9.10;;
72286;SDS011;60221;45.696;16.076;2024-01-06T07:49:19;18.50;;;9.60;;
72286;SDS011;60221;45.696;16.076;2024-01-06T07:51:46;19.70;;;9.60;;
72286;SDS011;60221;45.696;16.076;2024-01-06T07:54:13;21.30;;;9.40;;
72286;SDS011;60221;45.696;16.076;2024-01-06T07:56:39;22.10;;;9.90;;
72286;SDS011;60221;45.696;16.076;2024-01-06T07:59:06;20.80;;;9.30;;
72286;SDS011;60221;45.696;16.076;2024-01-06T08:01:34;19.40;;;9.40;;
72286;SDS011;60221;45.696;16.076;2024-01-06T08:04:01;21.70;;;10.00;;
72286;SDS011;60221;45.696;16.076;2024-01-06T08:06:28;19.10;;;9.60;;
72286;SDS011;60221;45.696;16.076;2024-01-06T08:09:12;21.40;;;9.90;;
72286;SDS011;60221;45.696;16.076;2024-01-06T08:11:39;22.70;;;11.00;;
72286;SDS011;60221;45.696;16.076;2024-01-06T08:14:06;22.90;;;11.30;;
72286;SDS011;60221;45.696;16.076;2024-01-06T08:16:33;19.30;;;9.50;;
72286;SDS011;60221;45.696;16.076;2024-01-06T08:19:00;23.30;;;12.20;;
72286;SDS011;60221;45.696;16.076;2024-01-06T08:21:27;24.30;;;11.70;;
72286;SDS011;60221;45.696;16.076;2024-01-06T08:23:54;30.90;;;15.50;;
72286;SDS011;60221;45.696;16.076;2024-01-06T08:26:22;38.60;;;19.90;;
72286;SDS011;60221;45.696;16.076;2024-01-06T08:28:49;186.90;;;89.50;;
72286;SDS011;60221;45.696;16.076;2024-01-06T08:31:16;41.90;;;21.80;;
72286;SDS011;60221;45.696;16.076;2024-01-06T08:33:43;90.10;;;43.00;;
72286;SDS011;60221;45.696;16.076;2024-01-06T08:36:10;36.00;;;18.70;;
72286;SDS011;60221;45.696;16.076;2024-01-06T08:38:37;47.10;;;21.90;;
72286;SDS011;60221;45.696;16.076;2024-01-06T08:41:04;30.80;;;16.20;;
72286;SDS011;60221;45.696;16.076;2024-01-06T08:43:30;26.30;;;13.20;;
72286;SDS011;60221;45.696;16.076;2024-01-06T08:45:57;27.20;;;12.40;;
72286;SDS011;60221;45.696;16.076;2024-01-06T08:48:24;30.70;;;13.80;;
72286;SDS011;60221;45.696;16.076;2024-01-06T08:50:51;20.90;;;10.70;;
72286;SDS011;60221;45.696;16.076;2024-01-06T08:53:18;31.60;;;14.10;;
72286;SDS011;60221;45.696;16.076;2024-01-06T08:55:45;23.90;;;12.90;;
72286;SDS011;60221;45.696;16.076;2024-01-06T08:58:13;24.00;;;12.50;;
72286;SDS011;60221;45.696;16.076;2024-01-06T09:00:39;21.30;;;11.30;;
72286;SDS011;60221;45.696;16.076;2024-01-06T09:03:06;18.20;;;10.20;;
72286;SDS011;60221;45.696;16.076;2024-01-06T09:05:34;20.50;;;10.60;;
72286;SDS011;60221;45.696;16.076;2024-01-06T09:08:01;19.90;;;10.40;;
72286;SDS011;60221;45.696;16.076;2024-01-06T09:10:29;22.40;;;11.10;;
72286;SDS011;60221;45.696;16.076;2024-01-06T09:12:56;26.50;;;13.50;;
72286;SDS011;60221;45.696;16.076;2024-01-06T09:15:23;21.80;;;10.50;;
72286;SDS011;60221;45.696;16.076;2024-01-06T09:17:50;22.60;;;13.10;;
72286;SDS011;60221;45.696;16.076;2024-01-06T09:20:17;23.90;;;12.90;;
72286;SDS011;60221;45.696;16.076;2024-01-06T09:22:44;23.40;;;11.80;;
72286;SDS011;60221;45.696;16.076;2024-01-06T09:25:11;23.90;;;12.50;;
72286;SDS011;60221;45.696;16.076;2024-01-06T09:27:39;19.20;;;10.70;;
72286;SDS011;60221;45.696;16.076;2024-01-06T09:30:06;19.20;;;9.90;;
72286;SDS011;60221;45.696;16.076;2024-01-06T09:32:34;27.90;;;14.40;;
72286;SDS011;60221;45.696;16.076;2024-01-06T09:35:01;21.20;;;11.00;;
72286;SDS011;60221;45.696;16.076;2024-01-06T09:37:28;25.20;;;12.70;;
72286;SDS011;60221;45.696;16.076;2024-01-06T09:39:55;21.20;;;10.40;;
72286;SDS011;60221;45.696;16.076;2024-01-06T09:42:22;20.70;;;11.40;;
72286;SDS011;60221;45.696;16.076;2024-01-06T09:44:49;18.90;;;10.80;;
72286;SDS011;60221;45.696;16.076;2024-01-06T09:47:16;27.10;;;11.90;;
72286;SDS011;60221;45.696;16.076;2024-01-06T09:49:50;32.50;;;18.80;;
72286;SDS011;60221;45.696;16.076;2024-01-06T09:52:21;25.30;;;12.30;;
72286;SDS011;60221;45.696;16.076;2024-01-06T09:54:51;23.70;;;10.80;;
72286;SDS011;60221;45.696;16.076;2024-01-06T09:57:20;24.70;;;12.50;;
72286;SDS011;60221;45.696;16.076;2024-01-06T09:59:46;22.10;;;11.60;;
72286;SDS011;60221;45.696;16.076;2024-01-06T10:02:14;19.80;;;10.90;;
72286;SDS011;60221;45.696;16.076;2024-01-06T10:04:43;20.40;;;10.90;;
72286;SDS011;60221;45.696;16.076;2024-01-06T10:07:10;22.00;;;10.90;;
72286;SDS011;60221;45.696;16.076;2024-01-06T10:09:40;20.50;;;11.20;;
72286;SDS011;60221;45.696;16.076;2024-01-06T10:12:08;26.00;;;11.50;;
72286;SDS011;60221;45.696;16.076;2024-01-06T10:14:36;32.60;;;18.10;;
72286;SDS011;60221;45.696;16.076;2024-01-06T10:17:05;45.40;;;26.70;;
72286;SDS011;60221;45.696;16.076;2024-01-06T10:19:32;37.10;;;19.00;;
72286;SDS011;60221;45.696;16.076;2024-01-06T10:21:59;28.10;;;14.30;;
72286;SDS011;60221;45.696;16.076;2024-01-06T10:24:28;23.80;;;12.20;;
72286;SDS011;60221;45.696;16.076;2024-01-06T10:26:57;23.50;;;11.90;;
72286;SDS011;60221;45.696;16.076;2024-01-06T10:29:24;25.00;;;11.60;;
72286;SDS011;60221;45.696;16.076;2024-01-06T10:31:51;33.30;;;17.20;;
72286;SDS011;60221;45.696;16.076;2024-01-06T10:34:21;32.10;;;17.20;;
72286;SDS011;60221;45.696;16.076;2024-01-06T10:36:49;37.40;;;20.10;;
72286;SDS011;60221;45.696;16.076;2024-01-06T10:39:16;33.20;;;20.00;;
72286;SDS011;60221;45.696;16.076;2024-01-06T10:41:43;44.70;;;23.00;;
72286;SDS011;60221;45.696;16.076;2024-01-06T10:44:11;52.00;;;28.60;;
72286;SDS011;60221;45.696;16.076;2024-01-06T10:46:38;77.50;;;40.80;;
72286;SDS011;60221;45.696;16.076;2024-01-06T10:49:05;80.70;;;41.90;;
72286;SDS011;60221;45.696;16.076;2024-01-06T10:51:34;89.60;;;43.70;;
72286;SDS011;60221;45.696;16.076;2024-01-06T10:54:02;79.60;;;42.30;;
72286;SDS011;60221;45.696;16.076;2024-01-06T10:56:29;66.50;;;34.20;;
72286;SDS011;60221;45.696;16.076;2024-01-06T10:58:57;47.90;;;25.00;;
72286;SDS011;60221;45.696;16.076;2024-01-06T11:01:24;44.30;;;27.00;;
72286;SDS011;60221;45.696;16.076;2024-01-06T11:03:57;55.20;;;28.60;;
72286;SDS011;60221;45.696;16.076;2024-01-06T11:06:28;55.80;;;29.10;;
72286;SDS011;60221;45.696;16.076;2024-01-06T11:11:25;51.00;;;27.80;;
72286;SDS011;60221;45.696;16.076;2024-01-06T11:13:53;64.00;;;34.50;;
72286;SDS011;60221;45.696;16.076;2024-01-06T11:16:40;73.60;;;39.50;;
72286;SDS011;60221;45.696;16.076;2024-01-06T11:21:54;50.90;;;25.10;;
72286;SDS011;60221;45.696;16.076;2024-01-06T11:24:25;44.30;;;24.80;;
72286;SDS011;60221;45.696;16.076;2024-01-06T11:27:05;46.60;;;27.40;;
72286;SDS011;60221;45.696;16.076;2024-01-06T11:29:35;50.40;;;28.60;;
72286;SDS011;60221;45.696;16.076;2024-01-06T11:32:18;44.50;;;25.40;;
72286;SDS011;60221;45.696;16.076;2024-01-06T11:34:49;41.90;;;24.40;;
72286;SDS011;60221;45.696;16.076;2024-01-06T11:40:11;41.30;;;22.80;;
72286;SDS011;60221;45.696;16.076;2024-01-06T11:42:42;46.10;;;25.60;;
72286;SDS011;60221;45.696;16.076;2024-01-06T11:45:09;54.50;;;30.10;;
72286;SDS011;60221;45.696;16.076;2024-01-06T11:47:35;48.80;;;28.80;;
72286;SDS011;60221;45.696;16.076;2024-01-06T11:50:03;45.50;;;26.30;;
72286;SDS011;60221;45.696;16.076;2024-01-06T11:52:31;42.60;;;23.40;;
72286;SDS011;60221;45.696;16.076;2024-01-06T11:54:58;60.30;;;30.50;;
72286;SDS011;60221;45.696;16.076;2024-01-06T11:57:28;52.70;;;30.10;;
72286;SDS011;60221;45.696;16.076;2024-01-06T11:59:56;49.70;;;28.30;;
72286;SDS011;60221;45.696;16.076;2024-01-06T12:02:25;47.60;;;27.10;;
72286;SDS011;60221;45.696;16.076;2024-01-06T12:04:53;47.00;;;27.40;;
72286;SDS011;60221;45.696;16.076;2024-01-06T12:07:20;39.10;;;21.70;;
72286;SDS011;60221;45.696;16.076;2024-01-06T12:09:50;43.70;;;22.50;;
72286;SDS011;60221;45.696;16.076;2024-01-06T12:12:17;37.70;;;19.50;;
72286;SDS011;60221;45.696;16.076;2024-01-06T12:14:44;38.90;;;21.70;;
72286;SDS011;60221;45.696;16.076;2024-01-06T12:17:13;77.10;;;36.40;;
72286;SDS011;60221;45.696;16.076;2024-01-06T12:19:40;97.40;;;43.80;;
72286;SDS011;60221;45.696;16.076;2024-01-06T12:22:11;56.60;;;25.90;;
72286;SDS011;60221;45.696;16.076;2024-01-06T12:24:39;35.10;;;17.00;;
72286;SDS011;60221;45.696;16.076;2024-01-06T12:27:07;28.80;;;15.00;;
72286;SDS011;60221;45.696;16.076;2024-01-06T12:29:42;32.20;;;15.80;;
72286;SDS011;60221;45.696;16.076;2024-01-06T12:32:09;23.10;;;13.10;;
72286;SDS011;60221;45.696;16.076;2024-01-06T12:34:36;23.20;;;12.30;;
72286;SDS011;60221;45.696;16.076;2024-01-06T12:37:04;23.80;;;12.80;;
72286;SDS011;60221;45.696;16.076;2024-01-06T12:39:30;21.40;;;13.10;;
72286;SDS011;60221;45.696;16.076;2024-01-06T12:41:58;45.00;;;20.00;;
72286;SDS011;60221;45.696;16.076;2024-01-06T12:44:26;33.90;;;17.70;;
72286;SDS011;60221;45.696;16.076;2024-01-06T12:46:59;26.20;;;14.70;;
72286;SDS011;60221;45.696;16.076;2024-01-06T12:49:25;26.60;;;13.00;;
72286;SDS011;60221;45.696;16.076;2024-01-06T12:51:52;20.50;;;12.10;;
72286;SDS011;60221;45.696;16.076;2024-01-06T12:54:20;21.50;;;11.40;;
72286;SDS011;60221;45.696;16.076;2024-01-06T12:56:47;23.50;;;12.00;;
72286;SDS011;60221;45.696;16.076;2024-01-06T12:59:14;23.60;;;12.50;;
72286;SDS011;60221;45.696;16.076;2024-01-06T13:01:41;22.90;;;11.60;;
72286;SDS011;60221;45.696;16.076;2024-01-06T13:04:08;24.00;;;10.50;;
72286;SDS011;60221;45.696;16.076;2024-01-06T13:06:35;21.40;;;10.80;;
72286;SDS011;60221;45.696;16.076;2024-01-06T13:09:02;20.80;;;9.90;;
72286;SDS011;60221;45.696;16.076;2024-01-06T13:11:34;17.80;;;9.40;;
72286;SDS011;60221;45.696;16.076;2024-01-06T13:14:02;22.70;;;10.70;;
72286;SDS011;60221;45.696;16.076;2024-01-06T13:16:28;47.20;;;21.80;;
72286;SDS011;60221;45.696;16.076;2024-01-06T13:18:55;26.40;;;12.80;;
72286;SDS011;60221;45.696;16.076;2024-01-06T13:21:22;20.20;;;9.90;;
72286;SDS011;60221;45.696;16.076;2024-01-06T13:23:50;17.50;;;9.20;;
72286;SDS011;60221;45.696;16.076;2024-01-06T13:26:17;16.60;;;8.00;;
72286;SDS011;60221;45.696;16.076;2024-01-06T13:28:44;17.70;;;8.60;;
72286;SDS011;60221;45.696;16.076;2024-01-06T13:31:12;17.30;;;9.80;;
72286;SDS011;60221;45.696;16.076;2024-01-06T13:33:39;17.00;;;8.90;;
72286;SDS011;60221;45.696;16.076;2024-01-06T13:36:06;24.60;;;11.70;;
72286;SDS011;60221;45.696;16.076;2024-01-06T13:38:33;23.30;;;10.40;;
72286;SDS011;60221;45.696;16.076;2024-01-06T13:41:00;22.00;;;10.40;;
72286;SDS011;60221;45.696;16.076;2024-01-06T13:43:26;17.10;;;8.70;;
72286;SDS011;60221;45.696;16.076;2024-01-06T13:45:53;18.00;;;9.60;;
72286;SDS011;60221;45.696;16.076;2024-01-06T13:48:21;19.70;;;9.50;;
72286;SDS011;60221;45.696;16.076;2024-01-06T13:50:48;19.30;;;9.80;;
72286;SDS011;60221;45.696;16.076;2024-01-06T13:53:15;22.30;;;11.00;;
72286;SDS011;60221;45.696;16.076;2024-01-06T13:55:43;24.30;;;12.00;;
72286;SDS011;60221;45.696;16.076;2024-01-06T13:58:11;21.80;;;11.30;;
72286;SDS011;60221;45.696;16.076;2024-01-06T14:00:37;25.60;;;12.00;;
72286;SDS011;60221;45.696;16.076;2024-01-06T14:03:05;25.70;;;13.10;;
72286;SDS011;60221;45.696;16.076;2024-01-06T14:05:33;19.50;;;9.80;;
72286;SDS011;60221;45.696;16.076;2024-01-06T14:08:01;17.70;;;9.00;;
72286;SDS011;60221;45.696;16.076;2024-01-06T14:10:28;16.80;;;9.00;;
72286;SDS011;60221;45.696;16.076;2024-01-06T14:12:57;18.90;;;9.50;;
72286;SDS011;60221;45.696;16.076;2024-01-06T14:15:24;17.90;;;9.30;;
72286;SDS011;60221;45.696;16.076;2024-01-06T14:17:53;22.30;;;8.80;;
72286;SDS011;60221;45.696;16.076;2024-01-06T14:20:20;17.30;;;9.10;;